sensor_id;sensor_type;location;lat;lon;timestamp;temperature;humidity
16313;DHT22;8265;52.622;13.296;2023-11-21T01:29:53;5.30;97.30
16313;DHT22;8265;52.622;13.296;2023-11-21T01:35:14;5.30;97.10
16313;DHT22;8265;52.622;13.296;2023-11-21T01:40:35;5.30;97.10
16313;DHT22;8265;52.622;13.296;2023-11-21T01:45:56;5.30;97.10
16313;DHT22;8265;52.622;13.296;2023-11-21T01:51:17;5.30;97.30
16313;DHT22;8265;52.622;13.296;2023-11-21T01:56:38;5.30;96.70
16313;DHT22;8265;52.622;13.296;2023-11-21T02:01:59;5.30;95.10
16313;DHT22;8265;52.622;13.296;2023-11-21T02:07:19;5.10;96.20
16313;DHT22;8265;52.622;13.296;2023-11-21T02:12:41;5.10;96.60
16313;DHT22;8265;52.622;13.296;2023-11-21T02:18:02;5.00;96.30
16313;DHT22;8265;52.622;13.296;2023-11-21T02:23:22;5.00;97.00
16313;DHT22;8265;52.622;13.296;2023-11-21T02:28:44;5.00;96.70
16313;DHT22;8265;52.622;13.296;2023-11-21T02:34:05;4.90;97.50
16313;DHT22;8265;52.622;13.296;2023-11-21T02:39:25;5.00;97.60
16313;DHT22;8265;52.622;13.296;2023-11-21T02:44:47;4.90;97.10
16313;DHT22;8265;52.622;13.296;2023-11-21T02:50:09;4.90;97.10
16313;DHT22;8265;52.622;13.296;2023-11-21T02:55:29;4.90;96.70
16313;DHT22;8265;52.622;13.296;2023-11-21T03:00:50;5.00;96.40
16313;DHT22;8265;52.622;13.296;2023-11-21T03:06:11;5.00;96.70
16313;DHT22;8265;52.622;13.296;2023-11-21T03:11:32;4.90;96.20
16313;DHT22;8265;52.622;13.296;2023-11-21T03:16:53;5.00;96.30
16313;DHT22;8265;52.622;13.296;2023-11-21T03:22:13;5.00;95.60
16313;DHT22;8265;52.622;13.296;2023-11-21T03:27:34;5.00;95.80
16313;DHT22;8265;52.622;13.296;2023-11-21T03:32:55;4.90;95.00
16313;DHT22;8265;52.622;13.296;2023-11-21T03:38:16;4.90;95.60
16313;DHT22;8265;52.622;13.296;2023-11-21T03:43:37;4.90;93.90
16313;DHT22;8265;52.622;13.296;2023-11-21T03:48:58;4.80;93.70
16313;DHT22;8265;52.622;13.296;2023-11-21T03:54:19;4.70;94.10
16313;DHT22;8265;52.622;13.296;2023-11-21T03:59:40;4.70;94.00
16313;DHT22;8265;52.622;13.296;2023-11-21T04:05:01;4.70;93.00
16313;DHT22;8265;52.622;13.296;2023-11-21T04:10:22;4.70;92.90
16313;DHT22;8265;52.622;13.296;2023-11-21T04:15:43;4.60;93.70
16313;DHT22;8265;52.622;13.296;2023-11-21T04:21:05;4.60;93.20
16313;DHT22;8265;52.622;13.296;2023-11-21T04:26:25;4.50;94.30
16313;DHT22;8265;52.622;13.296;2023-11-21T04:31:46;4.50;93.70
16313;DHT22;8265;52.622;13.296;2023-11-21T04:37:07;4.50;94.00
16313;DHT22;8265;52.622;13.296;2023-11-21T04:42:28;4.50;94.40
16313;DHT22;8265;52.622;13.296;2023-11-21T04:47:49;4.50;94.80
16313;DHT22;8265;52.622;13.296;2023-11-21T04:53:10;4.50;93.20
16313;DHT22;8265;52.622;13.296;2023-11-21T04:58:31;4.50;92.50
16313;DHT22;8265;52.622;13.296;2023-11-21T05:03:52;4.40;92.60
16313;DHT22;8265;52.622;13.296;2023-11-21T05:09:13;4.40;91.80
16313;DHT22;8265;52.622;13.296;2023-11-21T05:14:34;4.40;92.50
16313;DHT22;8265;52.622;13.296;2023-11-21T05:19:55;4.40;91.80
16313;DHT22;8265;52.622;13.296;2023-11-21T05:25:16;4.40;91.60
16313;DHT22;8265;52.622;13.296;2023-11-21T05:30:37;4.30;91.70
16313;DHT22;8265;52.622;13.296;2023-11-21T05:35:58;4.30;92.50
16313;DHT22;8265;52.622;13.296;2023-11-21T05:41:19;4.20;92.30
16313;DHT22;8265;52.622;13.296;2023-11-21T05:46:40;4.20;92.60
16313;DHT22;8265;52.622;13.296;2023-11-21T05:52:01;4.30;91.20
16313;DHT22;8265;52.622;13.296;2023-11-21T05:57:22;4.30;90.50
16313;DHT22;8265;52.622;13.296;2023-11-21T06:02:43;4.20;90.60
16313;DHT22;8265;52.622;13.296;2023-11-21T06:08:04;4.10;90.50
16313;DHT22;8265;52.622;13.296;2023-11-21T06:13:25;4.10;89.70
16313;DHT22;8265;52.622;13.296;2023-11-21T06:18:46;4.20;88.00
16313;DHT22;8265;52.622;13.296;2023-11-21T06:24:07;4.20;87.80
16313;DHT22;8265;52.622;13.296;2023-11-21T06:29:28;4.10;89.00
16313;DHT22;8265;52.622;13.296;2023-11-21T06:34:49;4.00;89.00
16313;DHT22;8265;52.622;13.296;2023-11-21T06:40:10;4.00;88.60
16313;DHT22;8265;52.622;13.296;2023-11-21T06:45:31;4.00;88.90
16313;DHT22;8265;52.622;13.296;2023-11-21T06:50:52;3.90;89.10
16313;DHT22;8265;52.622;13.296;2023-11-21T06:56:18;4.00;89.00
16313;DHT22;8265;52.622;13.296;2023-11-21T07:01:34;4.00;87.40
16313;DHT22;8265;52.622;13.296;2023-11-21T07:06:55;3.90;88.20
16313;DHT22;8265;52.622;13.296;2023-11-21T07:12:16;3.90;89.10
16313;DHT22;8265;52.622;13.296;2023-11-21T07:17:37;3.90;88.60
16313;DHT22;8265;52.622;13.296;2023-11-21T07:22:58;3.90;88.80
16313;DHT22;8265;52.622;13.296;2023-11-21T07:28:19;3.90;89.00
16313;DHT22;8265;52.622;13.296;2023-11-21T07:33:40;3.90;89.10
16313;DHT22;8265;52.622;13.296;2023-11-21T07:39:01;3.90;89.90
16313;DHT22;8265;52.622;13.296;2023-11-21T07:44:22;4.00;87.40
16313;DHT22;8265;52.622;13.296;2023-11-21T07:49:43;4.10;86.70
16313;DHT22;8265;52.622;13.296;2023-11-21T07:55:04;4.00;88.10
16313;DHT22;8265;52.622;13.296;2023-11-21T08:00:25;4.00;87.10
16313;DHT22;8265;52.622;13.296;2023-11-21T08:05:46;4.00;87.80
16313;DHT22;8265;52.622;13.296;2023-11-21T08:11:07;4.00;88.30
16313;DHT22;8265;52.622;13.296;2023-11-21T08:16:28;4.10;87.50
16313;DHT22;8265;52.622;13.296;2023-11-21T08:21:49;4.00;88.90
16313;DHT22;8265;52.622;13.296;2023-11-21T08:27:10;4.10;88.40
16313;DHT22;8265;52.622;13.296;2023-11-21T08:32:31;4.30;88.40
16313;DHT22;8265;52.622;13.296;2023-11-21T08:37:52;4.50;86.50
16313;DHT22;8265;52.622;13.296;2023-11-21T08:43:13;4.40;85.70
16313;DHT22;8265;52.622;13.296;2023-11-21T08:48:37;4.40;86.30
16313;DHT22;8265;52.622;13.296;2023-11-21T08:53:55;4.30;86.80
16313;DHT22;8265;52.622;13.296;2023-11-21T08:59:16;4.20;86.60
16313;DHT22;8265;52.622;13.296;2023-11-21T09:04:37;4.10;86.50
16313;DHT22;8265;52.622;13.296;2023-11-21T09:09:58;4.20;86.50
16313;DHT22;8265;52.622;13.296;2023-11-21T09:15:19;4.30;86.90
16313;DHT22;8265;52.622;13.296;2023-11-21T09:20:40;4.40;86.40
16313;DHT22;8265;52.622;13.296;2023-11-21T09:26:01;4.30;85.80
16313;DHT22;8265;52.622;13.296;2023-11-21T09:31:22;4.30;86.60
16313;DHT22;8265;52.622;13.296;2023-11-21T09:36:46;4.30;86.10
16313;DHT22;8265;52.622;13.296;2023-11-21T09:42:10;4.20;87.20
16313;DHT22;8265;52.622;13.296;2023-11-21T09:47:25;4.20;87.30
16313;DHT22;8265;52.622;13.296;2023-11-21T09:53:00;4.10;86.90
16313;DHT22;8265;52.622;13.296;2023-11-21T09:58:07;4.10;86.10
16313;DHT22;8265;52.622;13.296;2023-11-21T10:03:28;4.00;87.80
16313;DHT22;8265;52.622;13.296;2023-11-21T10:08:49;3.90;87.90
16313;DHT22;8265;52.622;13.296;2023-11-21T10:14:10;4.00;87.90
16313;DHT22;8265;52.622;13.296;2023-11-21T10:19:31;3.90;87.20
16313;DHT22;8265;52.622;13.296;2023-11-21T10:24:52;3.90;85.90
16313;DHT22;8265;52.622;13.296;2023-11-21T10:30:13;3.90;87.70
16313;DHT22;8265;52.622;13.296;2023-11-21T10:43:24;3.90;86.40
16313;DHT22;8265;52.622;13.296;2023-11-21T10:48:42;4.00;87.00
16313;DHT22;8265;52.622;13.296;2023-11-21T10:54:02;4.10;87.80
16313;DHT22;8265;52.622;13.296;2023-11-21T10:59:23;4.10;85.50
16313;DHT22;8265;52.622;13.296;2023-11-21T11:04:44;4.10;86.00
16313;DHT22;8265;52.622;13.296;2023-11-21T11:10:05;4.00;85.00
16313;DHT22;8265;52.622;13.296;2023-11-21T11:15:26;4.00;85.20
16313;DHT22;8265;52.622;13.296;2023-11-21T11:20:47;4.10;85.50
16313;DHT22;8265;52.622;13.296;2023-11-21T11:37:00;4.20;85.10
16313;DHT22;8265;52.622;13.296;2023-11-21T11:42:12;4.10;85.80
16313;DHT22;8265;52.622;13.296;2023-11-21T11:47:32;4.00;86.80
16313;DHT22;8265;52.622;13.296;2023-11-21T11:52:53;4.10;85.40
16313;DHT22;8265;52.622;13.296;2023-11-21T11:58:14;4.00;84.50
16313;DHT22;8265;52.622;13.296;2023-11-21T12:03:35;3.90;85.00
16313;DHT22;8265;52.622;13.296;2023-11-21T12:09:00;3.90;85.20
16313;DHT22;8265;52.622;13.296;2023-11-21T12:14:17;3.90;86.90
16313;DHT22;8265;52.622;13.296;2023-11-21T12:19:38;3.90;88.30
16313;DHT22;8265;52.622;13.296;2023-11-21T12:24:59;3.90;87.80
16313;DHT22;8265;52.622;13.296;2023-11-21T12:30:21;3.90;86.80
16313;DHT22;8265;52.622;13.296;2023-11-21T12:35:41;3.80;87.40
16313;DHT22;8265;52.622;13.296;2023-11-21T12:41:02;3.70;87.50
16313;DHT22;8265;52.622;13.296;2023-11-21T12:46:23;3.70;86.50
16313;DHT22;8265;52.622;13.296;2023-11-21T12:51:45;3.50;86.50
16313;DHT22;8265;52.622;13.296;2023-11-21T12:57:05;3.60;85.50
16313;DHT22;8265;52.622;13.296;2023-11-21T13:02:26;3.50;85.50
16313;DHT22;8265;52.622;13.296;2023-11-21T13:07:48;3.30;86.00
16313;DHT22;8265;52.622;13.296;2023-11-21T13:13:09;3.30;86.90
16313;DHT22;8265;52.622;13.296;2023-11-21T13:18:29;3.10;87.00
16313;DHT22;8265;52.622;13.296;2023-11-21T13:23:50;3.10;88.50
16313;DHT22;8265;52.622;13.296;2023-11-21T13:29:11;3.10;88.70
16313;DHT22;8265;52.622;13.296;2023-11-21T13:34:32;3.30;86.90
16313;DHT22;8265;52.622;13.296;2023-11-21T13:39:53;3.30;86.30
16313;DHT22;8265;52.622;13.296;2023-11-21T13:45:14;3.10;86.70
16313;DHT22;8265;52.622;13.296;2023-11-21T13:50:37;3.10;85.50
16313;DHT22;8265;52.622;13.296;2023-11-21T13:55:56;3.00;87.30
16313;DHT22;8265;52.622;13.296;2023-11-21T14:01:20;2.80;88.70
16313;DHT22;8265;52.622;13.296;2023-11-21T14:06:38;2.80;88.20
16313;DHT22;8265;52.622;13.296;2023-11-21T14:11:59;2.70;87.90
16313;DHT22;8265;52.622;13.296;2023-11-21T14:17:20;2.70;86.30
16313;DHT22;8265;52.622;13.296;2023-11-21T14:22:41;2.70;86.70
16313;DHT22;8265;52.622;13.296;2023-11-21T14:28:05;2.50;87.20
16313;DHT22;8265;52.622;13.296;2023-11-21T14:33:23;2.40;86.60
16313;DHT22;8265;52.622;13.296;2023-11-21T14:38:44;2.50;85.20
16313;DHT22;8265;52.622;13.296;2023-11-21T14:44:05;2.30;85.10
16313;DHT22;8265;52.622;13.296;2023-11-21T14:49:26;2.20;85.00
16313;DHT22;8265;52.622;13.296;2023-11-21T14:54:47;2.30;85.10
16313;DHT22;8265;52.622;13.296;2023-11-21T15:00:08;2.20;85.40
16313;DHT22;8265;52.622;13.296;2023-11-21T15:05:29;2.20;85.70
16313;DHT22;8265;52.622;13.296;2023-11-21T15:10:50;2.20;84.30
16313;DHT22;8265;52.622;13.296;2023-11-21T15:16:11;2.20;84.60
16313;DHT22;8265;52.622;13.296;2023-11-21T15:21:32;2.20;83.00
16313;DHT22;8265;52.622;13.296;2023-11-21T15:26:53;2.30;82.50
16313;DHT22;8265;52.622;13.296;2023-11-21T15:32:14;2.10;83.40
16313;DHT22;8265;52.622;13.296;2023-11-21T15:37:35;2.10;84.20
16313;DHT22;8265;52.622;13.296;2023-11-21T15:42:56;2.00;82.90
16313;DHT22;8265;52.622;13.296;2023-11-21T15:48:16;2.00;82.00
16313;DHT22;8265;52.622;13.296;2023-11-21T15:53:38;2.00;83.90
16313;DHT22;8265;52.622;13.296;2023-11-21T15:58:58;1.90;83.30
16313;DHT22;8265;52.622;13.296;2023-11-21T16:04:19;1.90;83.50
16313;DHT22;8265;52.622;13.296;2023-11-21T16:09:41;1.90;82.10
16313;DHT22;8265;52.622;13.296;2023-11-21T16:15:01;1.90;82.60
16313;DHT22;8265;52.622;13.296;2023-11-21T16:20:22;1.90;83.40
16313;DHT22;8265;52.622;13.296;2023-11-21T16:25:43;1.90;83.20
16313;DHT22;8265;52.622;13.296;2023-11-21T16:31:04;1.90;83.00
16313;DHT22;8265;52.622;13.296;2023-11-21T16:36:25;1.90;82.90
16313;DHT22;8265;52.622;13.296;2023-11-21T16:41:47;2.00;80.60
16313;DHT22;8265;52.622;13.296;2023-11-21T16:47:07;1.90;81.30
16313;DHT22;8265;52.622;13.296;2023-11-21T16:52:29;1.80;82.30
16313;DHT22;8265;52.622;13.296;2023-11-21T16:57:49;1.70;82.00
16313;DHT22;8265;52.622;13.296;2023-11-21T17:03:10;1.80;81.60
16313;DHT22;8265;52.622;13.296;2023-11-21T17:08:32;1.90;81.50
16313;DHT22;8265;52.622;13.296;2023-11-21T17:13:52;1.80;79.50
16313;DHT22;8265;52.622;13.296;2023-11-21T17:19:13;1.70;80.20
16313;DHT22;8265;52.622;13.296;2023-11-21T17:24:34;1.60;79.80
16313;DHT22;8265;52.622;13.296;2023-11-21T17:29:55;1.50;79.00
16313;DHT22;8265;52.622;13.296;2023-11-21T17:35:16;1.50;80.70
16313;DHT22;8265;52.622;13.296;2023-11-21T17:40:37;1.40;81.60
16313;DHT22;8265;52.622;13.296;2023-11-21T17:45:58;1.40;80.90
16313;DHT22;8265;52.622;13.296;2023-11-21T17:51:19;1.40;80.00
16313;DHT22;8265;52.622;13.296;2023-11-21T17:56:40;1.40;80.60
16313;DHT22;8265;52.622;13.296;2023-11-21T18:02:03;1.30;81.10
16313;DHT22;8265;52.622;13.296;2023-11-21T18:07:22;1.40;80.20
16313;DHT22;8265;52.622;13.296;2023-11-21T18:12:43;1.20;80.50
16313;DHT22;8265;52.622;13.296;2023-11-21T18:18:04;1.20;81.00
16313;DHT22;8265;52.622;13.296;2023-11-21T18:23:25;1.10;81.10
16313;DHT22;8265;52.622;13.296;2023-11-21T18:28:46;1.00;80.70
16313;DHT22;8265;52.622;13.296;2023-11-21T18:34:07;1.00;81.10
16313;DHT22;8265;52.622;13.296;2023-11-21T18:39:28;1.10;80.30
16313;DHT22;8265;52.622;13.296;2023-11-21T18:44:49;1.00;80.20
16313;DHT22;8265;52.622;13.296;2023-11-21T18:50:12;1.00;81.10
16313;DHT22;8265;52.622;13.296;2023-11-21T18:55:31;1.00;79.70
16313;DHT22;8265;52.622;13.296;2023-11-21T19:00:52;1.00;80.40
16313;DHT22;8265;52.622;13.296;2023-11-21T19:06:13;0.80;80.10
16313;DHT22;8265;52.622;13.296;2023-11-21T19:11:34;0.80;81.40
16313;DHT22;8265;52.622;13.296;2023-11-21T19:16:55;0.80;81.00
16313;DHT22;8265;52.622;13.296;2023-11-21T19:22:16;0.70;81.40
16313;DHT22;8265;52.622;13.296;2023-11-21T19:27:37;0.60;81.60
16313;DHT22;8265;52.622;13.296;2023-11-21T19:32:58;0.80;81.10
16313;DHT22;8265;52.622;13.296;2023-11-21T19:38:19;0.70;81.60
16313;DHT22;8265;52.622;13.296;2023-11-21T19:43:40;0.60;81.40
16313;DHT22;8265;52.622;13.296;2023-11-21T19:49:01;0.60;81.80
16313;DHT22;8265;52.622;13.296;2023-11-21T19:54:22;0.50;83.00
16313;DHT22;8265;52.622;13.296;2023-11-21T19:59:43;0.40;83.00
16313;DHT22;8265;52.622;13.296;2023-11-21T20:05:04;0.50;82.90
16313;DHT22;8265;52.622;13.296;2023-11-21T20:10:25;0.50;82.80
16313;DHT22;8265;52.622;13.296;2023-11-21T20:15:46;0.40;83.50
16313;DHT22;8265;52.622;13.296;2023-11-21T20:21:07;0.40;83.50
16313;DHT22;8265;52.622;13.296;2023-11-21T20:26:28;0.40;83.60
16313;DHT22;8265;52.622;13.296;2023-11-21T20:31:49;0.50;81.90
16313;DHT22;8265;52.622;13.296;2023-11-21T20:37:10;0.40;83.00
16313;DHT22;8265;52.622;13.296;2023-11-21T20:42:31;0.50;81.70
16313;DHT22;8265;52.622;13.296;2023-11-21T20:47:51;0.50;82.10
16313;DHT22;8265;52.622;13.296;2023-11-21T20:53:12;0.40;82.80
16313;DHT22;8265;52.622;13.296;2023-11-21T20:58:33;0.30;83.20
16313;DHT22;8265;52.622;13.296;2023-11-21T21:03:54;0.40;81.90
16313;DHT22;8265;52.622;13.296;2023-11-21T21:09:15;0.20;83.90
16313;DHT22;8265;52.622;13.296;2023-11-21T21:14:36;0.00;83.80
16313;DHT22;8265;52.622;13.296;2023-11-21T21:19:57;0.00;83.20
16313;DHT22;8265;52.622;13.296;2023-11-21T21:25:18;-0.10;84.00
16313;DHT22;8265;52.622;13.296;2023-11-21T21:30:39;-0.20;84.20
16313;DHT22;8265;52.622;13.296;2023-11-21T21:36:00;-0.30;84.70
16313;DHT22;8265;52.622;13.296;2023-11-21T21:41:21;-0.40;85.00
16313;DHT22;8265;52.622;13.296;2023-11-21T21:46:42;-0.50;85.50
16313;DHT22;8265;52.622;13.296;2023-11-21T21:52:03;-0.70;86.10
16313;DHT22;8265;52.622;13.296;2023-11-21T21:57:24;-0.80;86.50
16313;DHT22;8265;52.622;13.296;2023-11-21T22:02:45;-0.70;86.20
16313;DHT22;8265;52.622;13.296;2023-11-21T22:08:06;-0.80;85.80
16313;DHT22;8265;52.622;13.296;2023-11-21T22:13:27;-0.70;85.10
16313;DHT22;8265;52.622;13.296;2023-11-21T22:18:48;-0.70;85.00
16313;DHT22;8265;52.622;13.296;2023-11-21T22:24:12;-0.90;85.40
16313;DHT22;8265;52.622;13.296;2023-11-21T22:29:30;-1.00;85.70
16313;DHT22;8265;52.622;13.296;2023-11-21T22:34:51;-1.10;86.50
16313;DHT22;8265;52.622;13.296;2023-11-21T22:40:12;-1.10;86.40
16313;DHT22;8265;52.622;13.296;2023-11-21T22:45:33;-1.30;87.20
16313;DHT22;8265;52.622;13.296;2023-11-21T22:50:54;-1.30;87.80
16313;DHT22;8265;52.622;13.296;2023-11-21T22:56:15;-1.20;87.30
16313;DHT22;8265;52.622;13.296;2023-11-21T23:10:29;-1.10;86.40
16313;DHT22;8265;52.622;13.296;2023-11-21T23:15:47;-1.10;85.90
16313;DHT22;8265;52.622;13.296;2023-11-21T23:21:08;-1.30;85.60
16313;DHT22;8265;52.622;13.296;2023-11-21T23:26:29;-1.30;86.30
16313;DHT22;8265;52.622;13.296;2023-11-21T23:31:50;-1.40;86.90
16313;DHT22;8265;52.622;13.296;2023-11-21T23:37:11;-1.40;86.30
16313;DHT22;8265;52.622;13.296;2023-11-21T23:42:33;-1.30;85.80
16313;DHT22;8265;52.622;13.296;2023-11-21T23:47:54;-1.50;87.00
16313;DHT22;8265;52.622;13.296;2023-11-21T23:53:14;-1.50;86.40
16313;DHT22;8265;52.622;13.296;2023-11-21T23:58:35;-1.50;86.20
